Time;durP1;ratioP1;P1;durP2;ratioP2;P2;SDS_P1;SDS_P2;PMS_P1;PMS_P2;Temp;Humidity;BMP_temperature;BMP_pressure;BME280_temperature;BME280_humidity;BME280_pressure;Samples;Min_cycle;Max_cycle;Signal;HPM_P1;HPM_P2
2022/09/20 00:00:46;;;;;;;3.87;2.63;;;12.30;99.90;;;;;;5019809;28;20586;-54
2022/09/20 00:03:14;;;;;;;7.77;3.03;;;12.40;99.90;;;;;;5017618;28;20199;-53
2022/09/20 00:05:42;;;;;;;5.90;2.90;;;12.50;99.90;;;;;;5025396;28;20217;-54
2022/09/20 00:08:13;;;;;;;5.00;2.93;;;12.60;99.90;;;;;;5020197;28;20299;-54
2022/09/20 00:10:41;;;;;;;4.30;2.60;;;12.50;99.90;;;;;;5018607;28;20223;-54
2022/09/20 00:13:11;;;;;;;6.63;2.70;;;12.50;99.90;;;;;;5020528;28;20191;-53
2022/09/20 00:15:43;;;;;;;7.80;2.73;;;12.50;99.90;;;;;;5023880;28;20250;-54
2022/09/20 00:18:10;;;;;;;7.77;2.83;;;12.40;99.90;;;;;;5021273;28;20644;-53
2022/09/20 00:20:47;;;;;;;6.20;2.50;;;12.40;99.90;;;;;;5018455;28;20193;-54
2022/09/20 00:23:14;;;;;;;5.10;2.50;;;12.40;99.90;;;;;;5019359;28;20200;-53
2022/09/20 00:25:42;;;;;;;8.23;2.43;;;12.60;99.90;;;;;;5026045;28;20208;-53
2022/09/20 00:28:09;;;;;;;6.10;2.40;;;12.50;99.90;;;;;;5021940;28;20212;-53
2022/09/20 00:30:37;;;;;;;6.10;2.93;;;12.50;99.90;;;;;;5023622;28;20751;-53
2022/09/20 00:33:04;;;;;;;5.50;2.53;;;12.50;99.90;;;;;;5032945;28;20210;-54
2022/09/20 00:35:31;;;;;;;3.80;2.30;;;12.50;99.90;;;;;;5033105;28;20247;-54
2022/09/20 00:37:57;;;;;;;9.80;2.80;;;12.50;99.90;;;;;;5028209;28;20287;-54
2022/09/20 00:40:27;;;;;;;6.67;2.47;;;12.50;99.90;;;;;;5028833;28;20206;-54
2022/09/20 00:42:54;;;;;;;7.93;2.47;;;12.40;99.90;;;;;;5026241;28;20565;-53
2022/09/20 00:45:26;;;;;;;6.00;2.47;;;12.40;99.90;;;;;;5026697;28;20216;-54
2022/09/20 00:48:02;;;;;;;4.60;2.20;;;12.30;99.90;;;;;;5020017;28;20658;-53
2022/09/20 00:50:53;;;;;;;6.70;2.40;;;12.20;99.90;;;;;;5012137;28;20214;-54
2022/09/20 00:53:37;;;;;;;6.67;2.30;;;12.40;99.90;;;;;;5019118;28;20283;-53
2022/09/20 00:56:08;;;;;;;5.73;2.40;;;12.50;99.90;;;;;;5015098;28;20202;-54
2022/09/20 00:58:41;;;;;;;10.73;2.60;;;12.50;99.90;;;;;;5013411;28;20994;-53
2022/09/20 01:01:08;;;;;;;9.20;2.60;;;12.50;99.90;;;;;;5016993;28;20259;-53
2022/09/20 01:03:38;;;;;;;7.63;2.53;;;12.50;99.90;;;;;;5016999;28;20230;-53
2022/09/20 01:06:10;;;;;;;6.30;1.80;;;12.50;99.90;;;;;;5015392;28;20303;-52
2022/09/20 01:08:40;;;;;;;4.00;2.43;;;12.70;99.90;;;;;;5014963;28;20285;-54
2022/09/20 01:11:07;;;;;;;7.53;2.50;;;12.70;99.90;;;;;;5018071;28;22603;-54
2022/09/20 01:13:34;;;;;;;7.13;2.47;;;12.80;99.90;;;;;;5018947;28;20250;-54
2022/09/20 01:16:02;;;;;;;4.47;2.60;;;12.70;99.90;;;;;;5017199;28;20668;-54
2022/09/20 01:18:32;;;;;;;4.57;2.53;;;12.70;99.90;;;;;;5018685;28;20667;-54
2022/09/20 01:21:01;;;;;;;5.10;2.43;;;12.60;99.90;;;;;;5016872;28;20205;-53
2022/09/20 01:23:49;;;;;;;6.13;2.33;;;12.50;99.90;;;;;;5014790;28;20206;-54
2022/09/20 01:26:31;;;;;;;8.40;2.90;;;12.50;99.90;;;;;;5018935;28;20647;-53
2022/09/20 01:29:01;;;;;;;8.53;3.60;;;12.50;99.90;;;;;;5017294;28;20294;-54
2022/09/20 01:31:33;;;;;;;3.80;2.40;;;12.60;99.90;;;;;;5020409;28;20311;-54
2022/09/20 01:34:03;;;;;;;4.40;2.40;;;12.60;99.90;;;;;;5021338;28;20239;-54
2022/09/20 01:36:53;;;;;;;6.47;2.70;;;12.60;99.90;;;;;;5021740;28;20666;-53
2022/09/20 01:39:58;;;;;;;7.13;2.73;;;12.50;99.90;;;;;;5018165;28;20197;-54
2022/09/20 01:42:32;;;;;;;6.93;2.50;;;12.50;99.90;;;;;;5039450;28;20632;-54
2022/09/20 01:45:26;;;;;;;6.50;2.40;;;12.60;99.90;;;;;;5019220;28;20219;-53
2022/09/20 01:48:38;;;;;;;6.57;2.83;;;12.60;99.90;;;;;;5021148;28;20319;-57
2022/09/20 01:51:18;;;;;;;5.63;2.33;;;12.70;99.90;;;;;;5015092;28;20274;-54
2022/09/20 01:54:08;;;;;;;7.37;2.57;;;12.70;99.90;;;;;;5016627;28;20203;-54
2022/09/20 01:56:56;;;;;;;9.83;2.60;;;12.60;99.90;;;;;;5016047;28;20196;-53
2022/09/20 02:00:01;;;;;;;4.60;2.57;;;12.60;99.90;;;;;;5012954;28;20199;-53
2022/09/20 02:03:00;;;;;;;4.03;2.37;;;12.60;99.90;;;;;;5014474;28;20593;-53
2022/09/20 02:05:41;;;;;;;4.10;2.33;;;12.50;99.90;;;;;;5030746;28;20208;-53
2022/09/20 02:08:26;;;;;;;4.47;2.47;;;12.40;99.90;;;;;;5017507;28;20577;-54
2022/09/20 02:11:20;;;;;;;5.20;2.30;;;12.60;99.90;;;;;;5015818;28;20208;-54
2022/09/20 02:14:15;;;;;;;4.57;2.07;;;12.70;99.90;;;;;;5011565;28;20192;-56
2022/09/20 02:17:35;;;;;;;6.73;2.70;;;12.60;99.90;;;;;;5010863;28;20226;-54
2022/09/20 02:20:31;;;;;;;9.27;2.23;;;12.70;99.90;;;;;;5020775;28;20212;-53
2022/09/20 02:23:06;;;;;;;5.27;2.00;;;12.70;99.90;;;;;;5016771;28;20726;-54
2022/09/20 02:26:00;;;;;;;5.03;1.90;;;12.60;99.90;;;;;;5022665;28;20252;-54
2022/09/20 02:28:48;;;;;;;4.73;1.80;;;12.70;99.90;;;;;;5020422;28;20236;-54
2022/09/20 02:31:34;;;;;;;4.70;1.67;;;12.70;99.90;;;;;;5019026;28;20270;-54
2022/09/20 02:34:07;;;;;;;4.93;1.60;;;12.60;99.90;;;;;;5018791;28;20199;-54
2022/09/20 02:36:42;;;;;;;4.60;1.73;;;12.60;99.90;;;;;;5018458;28;20200;-54
2022/09/20 02:39:19;;;;;;;3.87;1.30;;;12.50;99.90;;;;;;5020475;28;20195;-54
2022/09/20 02:42:13;;;;;;;6.07;1.67;;;12.60;99.90;;;;;;5021484;28;20215;-54
2022/09/20 02:45:01;;;;;;;5.67;1.20;;;12.70;99.90;;;;;;5021767;28;20585;-54
2022/09/20 02:47:35;;;;;;;4.50;1.20;;;12.80;99.90;;;;;;5023397;28;20322;-54
2022/09/20 02:50:29;;;;;;;4.73;1.13;;;12.60;99.90;;;;;;5018402;28;20213;-53
2022/09/20 02:53:19;;;;;;;2.30;1.20;;;12.50;99.90;;;;;;5019554;28;20296;-55
2022/09/20 02:56:10;;;;;;;3.27;1.00;;;12.60;99.90;;;;;;5013355;28;20207;-54
2022/09/20 02:58:53;;;;;;;2.80;1.50;;;12.60;99.90;;;;;;5018897;28;20211;-54
2022/09/20 03:01:31;;;;;;;4.50;1.50;;;12.50;99.90;;;;;;5022540;28;20561;-53
2022/09/20 03:04:16;;;;;;;6.70;1.73;;;12.50;99.90;;;;;;5012670;28;20204;-54
2022/09/20 03:07:15;;;;;;;4.10;1.07;;;12.60;99.90;;;;;;5020448;28;20608;-57
2022/09/20 03:10:14;;;;;;;4.80;1.27;;;12.50;99.90;;;;;;5017704;28;20228;-57
2022/09/20 03:13:09;;;;;;;5.23;1.20;;;12.60;99.90;;;;;;5014367;28;20220;-55
2022/09/20 03:15:48;;;;;;;5.97;1.30;;;12.70;99.90;;;;;;5016105;28;20706;-54
2022/09/20 03:18:18;;;;;;;3.80;0.80;;;12.80;99.90;;;;;;5017865;28;20204;-54
2022/09/20 03:21:21;;;;;;;3.10;0.80;;;12.90;99.90;;;;;;5015511;28;20920;-53
2022/09/20 03:23:54;;;;;;;3.57;1.23;;;12.80;99.90;;;;;;5021019;28;20205;-54
2022/09/20 03:26:58;;;;;;;5.17;1.33;;;12.80;99.90;;;;;;5016265;28;20196;-54
2022/09/20 03:29:46;;;;;;;6.03;1.60;;;12.70;99.90;;;;;;5017956;28;20206;-53
2022/09/20 03:32:36;;;;;;;3.00;1.20;;;12.80;99.90;;;;;;5019777;28;20777;-52
2022/09/20 03:35:33;;;;;;;4.53;1.30;;;12.80;99.90;;;;;;5020651;28;20215;-53
2022/09/20 03:38:34;;;;;;;3.63;1.50;;;12.70;99.90;;;;;;5022437;28;20286;-53
2022/09/20 03:41:32;;;;;;;8.60;1.93;;;12.50;99.90;;;;;;5021216;28;20191;-53
2022/09/20 03:44:22;;;;;;;4.47;1.90;;;12.40;99.90;;;;;;5020861;28;20323;-54
2022/09/20 03:46:55;;;;;;;3.80;2.33;;;12.50;99.90;;;;;;5016759;28;20266;-53
2022/09/20 03:49:44;;;;;;;5.17;2.20;;;12.60;99.90;;;;;;5019138;28;20252;-53
2022/09/20 03:52:20;;;;;;;3.27;2.30;;;12.70;99.90;;;;;;5020013;28;20204;-53
2022/09/20 03:54:47;;;;;;;7.17;2.67;;;12.70;99.90;;;;;;5018832;28;20427;-59
2022/09/20 03:57:43;;;;;;;6.23;2.77;;;12.70;99.90;;;;;;5019506;28;20519;-53
2022/09/20 04:00:22;;;;;;;8.30;2.47;;;12.80;99.90;;;;;;5022918;28;20208;-54
2022/09/20 04:03:22;;;;;;;6.87;2.43;;;12.80;99.90;;;;;;5023269;28;20223;-54
2022/09/20 04:06:08;;;;;;;8.13;2.50;;;12.80;99.90;;;;;;5016219;28;20318;-54
2022/09/20 04:09:12;;;;;;;5.80;2.10;;;12.80;99.90;;;;;;5018557;28;20211;-54
2022/09/20 04:11:54;;;;;;;8.93;2.90;;;12.80;99.90;;;;;;5025878;28;20648;-54
2022/09/20 04:15:05;;;;;;;4.43;2.23;;;12.80;99.90;;;;;;5017964;28;20278;-55
2022/09/20 04:17:41;;;;;;;3.93;2.27;;;12.80;99.90;;;;;;5022551;28;20204;-54
2022/09/20 04:20:42;;;;;;;8.70;2.60;;;12.70;99.90;;;;;;5015956;28;20232;-53
2022/09/20 04:23:30;;;;;;;8.63;2.50;;;12.80;99.90;;;;;;5021604;28;20208;-53
2022/09/20 04:25:59;;;;;;;3.17;1.77;;;12.80;99.90;;;;;;5020305;28;20318;-54
2022/09/20 04:28:46;;;;;;;5.03;1.90;;;12.80;99.90;;;;;;5019492;28;20593;-54
2022/09/20 04:31:28;;;;;;;3.97;1.97;;;12.80;99.90;;;;;;5021181;28;20210;-54
2022/09/20 04:33:58;;;;;;;5.43;2.17;;;12.80;99.90;;;;;;5022340;28;20221;-54
2022/09/20 04:37:02;;;;;;;7.63;2.43;;;12.80;99.90;;;;;;5017695;28;20202;-53
2022/09/20 04:39:46;;;;;;;7.17;2.20;;;12.80;99.90;;;;;;5021661;28;20217;-53
2022/09/20 04:42:41;;;;;;;7.23;1.97;;;12.80;99.90;;;;;;5019176;28;20568;-53
2022/09/20 04:45:27;;;;;;;3.77;2.17;;;12.90;99.90;;;;;;5021064;28;20206;-53
2022/09/20 04:48:45;;;;;;;5.13;2.20;;;12.70;99.90;;;;;;5018545;28;20301;-53
2022/09/20 04:51:21;;;;;;;6.97;2.13;;;12.70;99.90;;;;;;5006633;28;20241;-53
2022/09/20 04:54:03;;;;;;;8.03;2.27;;;12.70;99.90;;;;;;5000664;28;20303;-54
2022/09/20 04:57:06;;;;;;;9.07;2.30;;;12.70;99.90;;;;;;5000667;28;20309;-53
2022/09/20 04:59:54;;;;;;;8.67;1.97;;;12.60;99.90;;;;;;4997914;28;20200;-54
2022/09/20 05:02:58;;;;;;;3.53;2.43;;;12.70;99.90;;;;;;5001438;28;20223;-53
2022/09/20 05:05:46;;;;;;;5.77;2.13;;;12.60;99.90;;;;;;5003672;28;20204;-54
2022/09/20 05:08:34;;;;;;;6.40;2.37;;;12.70;99.90;;;;;;5003157;28;20657;-54
2022/09/20 05:11:29;;;;;;;3.90;1.67;;;12.60;99.90;;;;;;5000428;28;20207;-53
2022/09/20 05:14:34;;;;;;;4.43;2.07;;;12.50;99.90;;;;;;5002189;28;20316;-54
2022/09/20 05:17:10;;;;;;;8.90;2.33;;;12.50;99.90;;;;;;5002999;28;20232;-55
2022/09/20 05:19:53;;;;;;;7.27;2.40;;;12.40;99.90;;;;;;5003069;28;20686;-53
2022/09/20 05:22:44;;;;;;;5.00;2.33;;;12.40;99.90;;;;;;5013100;28;20267;-53
2022/09/20 05:25:34;;;;;;;8.50;2.60;;;12.40;99.90;;;;;;5023530;28;20200;-54
2022/09/20 05:28:13;;;;;;;4.67;2.40;;;12.50;99.90;;;;;;5017080;28;20234;-55
2022/09/20 05:30:53;;;;;;;3.90;2.27;;;12.50;99.90;;;;;;5024396;28;20292;-55
2022/09/20 05:33:26;;;;;;;5.53;2.60;;;12.50;99.90;;;;;;5023512;28;20213;-54
2022/09/20 05:36:26;;;;;;;3.30;2.17;;;12.50;99.90;;;;;;5018081;28;20195;-55
2022/09/20 05:39:24;;;;;;;5.43;2.37;;;12.50;99.90;;;;;;5015780;28;20235;-55
2022/09/20 05:41:57;;;;;;;3.47;2.27;;;12.50;99.90;;;;;;5013552;28;20206;-55
2022/09/20 05:44:47;;;;;;;5.50;3.13;;;12.50;99.90;;;;;;5016427;28;20687;-54
2022/09/20 05:47:30;;;;;;;3.63;2.60;;;12.60;99.90;;;;;;5012560;28;20235;-53
2022/09/20 05:50:14;;;;;;;6.93;3.03;;;12.50;99.90;;;;;;4655920;28;9999922;-54
2022/09/20 05:52:50;;;;;;;4.40;2.97;;;12.50;99.90;;;;;;5010124;28;20261;-53
2022/09/20 05:55:49;;;;;;;5.73;3.30;;;12.50;99.90;;;;;;5014136;28;20230;-54
2022/09/20 05:58:31;;;;;;;7.17;2.63;;;12.50;99.90;;;;;;5007470;28;20847;-54
2022/09/20 06:01:15;;;;;;;4.47;3.60;;;12.70;99.90;;;;;;5009723;28;20231;-53
2022/09/20 06:03:53;;;;;;;5.90;3.57;;;12.70;99.90;;;;;;5012309;28;20232;-53
2022/09/20 06:06:57;;;;;;;5.23;3.63;;;12.70;99.90;;;;;;5009089;28;20203;-54
2022/09/20 06:09:42;;;;;;;6.13;3.60;;;12.70;99.90;;;;;;5017525;28;20222;-55
2022/09/20 06:12:39;;;;;;;7.97;4.13;;;12.60;99.90;;;;;;5013012;28;20227;-54
2022/09/20 06:15:23;;;;;;;5.83;3.50;;;12.70;99.90;;;;;;5014771;28;20200;-54
2022/09/20 06:18:00;;;;;;;7.30;3.60;;;12.70;99.90;;;;;;5013161;28;20214;-53
2022/09/20 06:20:53;;;;;;;6.37;3.30;;;12.70;99.90;;;;;;5011972;28;20330;-54
2022/09/20 06:23:20;;;;;;;5.37;3.53;;;12.60;99.90;;;;;;5009234;28;20287;-53
2022/09/20 06:25:54;;;;;;;5.17;3.20;;;12.50;99.90;;;;;;5011245;28;20210;-54
2022/09/20 06:28:26;;;;;;;6.50;3.73;;;12.50;99.90;;;;;;5007037;28;20196;-53
2022/09/20 06:30:54;;;;;;;8.63;4.00;;;12.60;99.90;;;;;;5009412;28;20663;-54
2022/09/20 06:33:26;;;;;;;5.60;4.00;;;12.50;99.90;;;;;;5011146;28;20227;-54
2022/09/20 06:35:52;;;;;;;7.67;3.73;;;12.40;99.90;;;;;;5007448;28;20225;-54
2022/09/20 06:41:29;;;;;;;5.97;4.53;;;12.70;99.90;;;;;;5007804;28;20329;-53
2022/09/20 06:44:00;;;;;;;7.93;3.57;;;12.80;99.90;;;;;;5016389;28;20233;-53
2022/09/20 06:46:29;;;;;;;6.87;3.40;;;12.80;99.90;;;;;;5012176;28;20232;-53
2022/09/20 06:48:57;;;;;;;6.43;3.60;;;12.80;99.90;;;;;;5011921;28;20324;-53
2022/09/20 06:51:27;;;;;;;5.07;3.33;;;12.90;99.90;;;;;;5009525;28;20203;-52
2022/09/20 06:53:56;;;;;;;7.77;3.43;;;12.90;99.90;;;;;;5014740;28;20221;-54
2022/09/20 06:56:25;;;;;;;4.37;3.90;;;12.90;99.90;;;;;;5012084;28;20204;-53
2022/09/20 06:58:53;;;;;;;7.03;3.70;;;12.90;99.90;;;;;;5006244;28;21207;-54
2022/09/20 07:01:20;;;;;;;4.50;3.27;;;13.10;99.90;;;;;;5016774;28;20528;-53
2022/09/20 07:03:57;;;;;;;7.30;3.70;;;13.10;99.90;;;;;;5009723;28;20204;-54
2022/09/20 07:06:24;;;;;;;6.83;2.80;;;13.10;99.90;;;;;;5016816;28;20205;-54
2022/09/20 07:08:51;;;;;;;4.03;3.10;;;13.20;99.90;;;;;;5011972;28;20201;-54
2022/09/20 07:11:18;;;;;;;5.50;3.57;;;13.10;99.90;;;;;;5010006;28;20258;-54
2022/09/20 07:13:50;;;;;;;3.67;2.97;;;13.20;99.90;;;;;;5005458;28;20220;-54
2022/09/20 07:16:17;;;;;;;5.80;2.80;;;13.30;99.90;;;;;;5012130;28;20199;-54
2022/09/20 07:18:44;;;;;;;3.97;2.87;;;13.50;99.90;;;;;;5010975;28;20219;-54
2022/09/20 07:21:13;;;;;;;7.53;2.77;;;13.50;99.90;;;;;;5010438;28;20205;-54
2022/09/20 07:23:40;;;;;;;3.70;2.90;;;13.50;99.90;;;;;;5015748;28;20257;-56
2022/09/20 07:26:19;;;;;;;4.13;2.80;;;13.60;99.90;;;;;;5007957;28;20198;-53
2022/09/20 07:28:46;;;;;;;9.00;3.30;;;13.70;99.90;;;;;;5007851;28;20298;-56
2022/09/20 07:31:14;;;;;;;6.83;2.80;;;13.80;99.90;;;;;;5009276;28;20214;-53
2022/09/20 07:33:41;;;;;;;5.07;2.33;;;13.80;99.90;;;;;;5012257;28;20450;-54
2022/09/20 07:36:08;;;;;;;5.83;2.73;;;14.00;99.90;;;;;;5009799;28;20200;-54
2022/09/20 07:38:35;;;;;;;5.80;2.67;;;14.00;99.90;;;;;;5008166;28;20203;-53
2022/09/20 07:41:02;;;;;;;6.03;2.63;;;14.10;99.90;;;;;;5006109;28;20205;-53
2022/09/20 07:43:30;;;;;;;6.87;2.73;;;14.00;99.90;;;;;;5010138;28;20223;-53
2022/09/20 07:45:58;;;;;;;5.33;2.17;;;14.20;99.90;;;;;;5009110;28;20281;-53
2022/09/20 07:48:29;;;;;;;3.00;1.97;;;14.40;99.90;;;;;;5011834;28;20234;-54
2022/09/20 07:51:01;;;;;;;7.23;2.07;;;14.30;1.00;;;;;;5016525;28;20206;-54
2022/09/20 07:53:33;;;;;;;6.73;2.13;;;14.30;1.00;;;;;;5017479;28;20206;-54
2022/09/20 07:56:02;;;;;;;3.73;1.40;;;14.60;1.00;;;;;;5015947;28;20715;-54
2022/09/20 07:58:30;;;;;;;1.63;1.00;;;14.70;1.00;;;;;;5015567;28;20198;-55
2022/09/20 08:01:00;;;;;;;6.83;1.90;;;14.60;12.70;;;;;;5012975;28;20231;-53
2022/09/20 08:03:29;;;;;;;6.23;1.60;;;14.90;1.00;;;;;;5015038;28;20217;-53
2022/09/20 08:06:02;;;;;;;5.37;1.40;;;15.10;1.00;;;;;;5018668;28;20236;-54
2022/09/20 08:08:32;;;;;;;3.33;1.80;;;15.20;1.00;;;;;;5020383;28;20200;-53
2022/09/20 08:11:10;;;;;;;2.87;1.47;;;15.20;1.00;;;;;;5016886;28;20204;-53
2022/09/20 08:13:38;;;;;;;3.63;1.57;;;15.20;1.00;;;;;;5012962;28;20232;-53
2022/09/20 08:16:26;;;;;;;2.70;1.50;;;15.60;1.00;;;;;;5016338;28;20203;-53
2022/09/20 08:18:59;;;;;;;3.43;1.33;;;15.50;10.50;;;;;;5019972;28;20245;-53
2022/09/20 08:21:31;;;;;;;2.60;1.20;;;15.80;1.00;;;;;;5013643;28;20299;-53
2022/09/20 08:23:58;;;;;;;3.17;1.47;;;15.90;74.40;;;;;;5017268;28;20310;-53
2022/09/20 08:26:27;;;;;;;1.97;1.10;;;15.60;1.00;;;;;;5014158;28;20208;-53
2022/09/20 08:28:56;;;;;;;2.23;1.13;;;15.80;1.00;;;;;;5014024;28;20206;-54
2022/09/20 08:31:31;;;;;;;4.73;1.50;;;16.00;1.00;;;;;;5017324;28;20203;-54
2022/09/20 08:34:01;;;;;;;3.83;1.17;;;16.20;99.90;;;;;;5013043;28;20221;-53
2022/09/20 08:36:30;;;;;;;2.40;0.87;;;16.30;99.90;;;;;;5012072;28;20672;-54
2022/09/20 08:39:02;;;;;;;3.53;1.30;;;16.20;1.00;;;;;;5016820;28;20206;-54
2022/09/20 08:42:22;;;;;;;7.30;1.20;;;16.70;99.90;;;;;;5011490;28;20696;-54
2022/09/20 08:45:02;;;;;;;2.70;0.77;;;16.60;1.00;;;;;;5015850;28;20243;-54
2022/09/20 08:47:35;;;;;;;5.67;1.67;;;17.00;99.90;;;;;;5017055;28;20231;-53
2022/09/20 08:50:06;;;;;;;4.63;0.80;;;16.60;1.00;;;;;;5016536;28;20215;-53
2022/09/20 08:52:39;;;;;;;2.90;0.57;;;16.70;1.00;;;;;;5011949;28;20895;-54
2022/09/20 08:55:15;;;;;;;1.30;0.60;;;16.60;1.00;;;;;;5013466;28;20548;-53
2022/09/20 08:57:47;;;;;;;4.20;1.03;;;16.30;1.00;;;;;;5011592;28;20570;-54
2022/09/20 09:00:21;;;;;;;1.53;0.50;;;16.20;1.00;;;;;;5014817;28;20544;-54
2022/09/20 09:02:52;;;;;;;2.87;0.60;;;16.30;1.00;;;;;;5014991;28;20648;-56
2022/09/20 09:05:33;;;;;;;3.53;0.90;;;16.50;1.00;;;;;;5014452;28;20215;-56
2022/09/20 09:08:06;;;;;;;1.13;0.43;;;16.30;1.00;;;;;;5020306;28;20199;-54
2022/09/20 09:10:37;;;;;;;3.33;0.60;;;16.20;1.00;;;;;;5020994;28;20565;-54
2022/09/20 09:13:22;;;;;;;5.33;0.70;;;15.90;1.00;;;;;;5012854;28;21050;-53
2022/09/20 09:15:56;;;;;;;4.13;0.80;;;15.80;1.00;;;;;;5018391;28;20291;-53
2022/09/20 09:18:31;;;;;;;3.13;0.83;;;15.70;1.00;;;;;;5011358;28;20571;-54
2022/09/20 09:21:03;;;;;;;4.23;0.77;;;15.80;1.00;;;;;;5016664;28;20196;-54
2022/09/20 09:23:42;;;;;;;3.77;0.93;;;16.00;1.00;;;;;;5009222;28;20197;-53
2022/09/20 09:26:36;;;;;;;2.60;0.60;;;15.70;1.00;;;;;;5028312;28;20328;-53
2022/09/20 09:29:13;;;;;;;2.07;0.70;;;15.60;1.00;;;;;;5012705;28;20638;-53
2022/09/20 09:31:41;;;;;;;3.50;0.83;;;15.80;1.00;;;;;;5016999;28;20287;-53
2022/09/20 09:34:37;;;;;;;4.47;0.73;;;15.80;1.00;;;;;;5015671;28;20214;-53
2022/09/20 09:37:04;;;;;;;3.93;0.90;;;15.90;1.00;;;;;;5011014;28;20198;-53
2022/09/20 09:39:34;;;;;;;4.67;0.60;;;16.00;1.00;;;;;;5020322;28;20241;-53
2022/09/20 09:42:19;;;;;;;5.67;0.97;;;16.00;1.00;;;;;;5017099;28;20207;-53
2022/09/20 09:44:49;;;;;;;4.63;0.80;;;15.80;1.00;;;;;;5011941;28;20269;-53
2022/09/20 09:47:26;;;;;;;3.03;0.60;;;15.80;1.00;;;;;;5014406;28;20266;-53
2022/09/20 09:49:58;;;;;;;2.17;0.60;;;15.70;1.00;;;;;;5016236;28;20605;-53
2022/09/20 09:52:32;;;;;;;3.57;0.70;;;15.50;1.00;;;;;;5013707;28;20305;-54
2022/09/20 09:55:01;;;;;;;2.97;0.70;;;15.60;1.00;;;;;;5014699;28;20238;-53
2022/09/20 09:57:52;;;;;;;3.03;0.70;;;15.60;1.00;;;;;;5010570;28;20204;-53
2022/09/20 10:00:21;;;;;;;4.07;0.97;;;15.70;1.00;;;;;;5012140;28;20198;-56
2022/09/20 10:03:13;;;;;;;3.77;0.70;;;15.70;1.00;;;;;;5016959;28;20213;-53
2022/09/20 10:06:04;;;;;;;4.33;1.07;;;15.80;1.00;;;;;;5026594;28;20201;-53
2022/09/20 10:08:40;;;;;;;6.10;0.90;;;15.90;1.00;;;;;;5011952;28;20229;-53
2022/09/20 10:11:48;;;;;;;4.37;0.77;;;16.00;1.00;;;;;;5012967;28;20287;-53
2022/09/20 10:14:33;;;;;;;3.77;0.90;;;15.90;1.00;;;;;;5013187;28;20576;-53
2022/09/20 10:17:21;;;;;;;4.47;1.13;;;15.90;1.00;;;;;;5013724;28;20198;-53
2022/09/20 10:20:24;;;;;;;3.40;0.70;;;15.90;1.00;;;;;;5007776;28;20283;-53
2022/09/20 10:23:19;;;;;;;4.80;0.90;;;15.70;1.00;;;;;;5019079;28;20205;-53
2022/09/20 10:26:36;;;;;;;3.50;0.70;;;15.80;1.00;;;;;;5013711;28;20218;-53
2022/09/20 10:29:18;;;;;;;2.80;0.67;;;16.00;1.00;;;;;;5009363;28;20203;-53
2022/09/20 10:32:25;;;;;;;2.20;0.70;;;16.30;1.00;;;;;;5014959;28;20219;-54
2022/09/20 10:35:21;;;;;;;3.23;0.70;;;16.50;1.00;;;;;;5002559;28;20209;-54
2022/09/20 10:38:18;;;;;;;3.83;1.07;;;16.50;1.00;;;;;;5014701;28;20206;-52
2022/09/20 10:43:57;;;;;;;2.50;0.50;;;16.80;1.00;;;;;;5007533;28;20201;-53
2022/09/20 10:46:50;;;;;;;3.13;1.00;;;16.50;1.00;;;;;;5015568;28;20267;-53
2022/09/20 10:49:40;;;;;;;2.23;0.63;;;16.70;1.00;;;;;;5013132;28;20731;-53
2022/09/20 10:52:18;;;;;;;4.50;0.80;;;16.50;1.00;;;;;;5011688;28;20211;-53
2022/09/20 10:55:02;;;;;;;3.60;0.63;;;16.20;1.00;;;;;;5013107;28;20226;-53
2022/09/20 10:58:06;;;;;;;5.87;0.60;;;16.20;1.00;;;;;;5008827;28;20204;-53
2022/09/20 11:00:40;;;;;;;2.23;0.50;;;16.20;1.00;;;;;;5015938;28;20195;-56
2022/09/20 11:03:19;;;;;;;3.83;0.60;;;16.10;1.00;;;;;;5015617;28;20202;-52
2022/09/20 11:06:10;;;;;;;3.53;0.70;;;16.20;1.00;;;;;;5017113;28;20555;-54
2022/09/20 11:08:39;;;;;;;3.13;0.70;;;16.30;1.00;;;;;;5008362;28;20198;-52
2022/09/20 11:11:15;;;;;;;2.17;0.70;;;16.20;1.00;;;;;;5014889;28;20685;-51
2022/09/20 11:13:57;;;;;;;1.23;0.33;;;15.80;1.00;;;;;;5011203;28;20223;-52
2022/09/20 11:17:07;;;;;;;3.43;0.70;;;16.00;1.00;;;;;;5024116;28;20198;-52
2022/09/20 11:20:27;;;;;;;2.07;0.60;;;16.00;1.00;;;;;;5021078;28;20207;-54
2022/09/20 11:23:24;;;;;;;5.30;0.67;;;15.80;1.00;;;;;;4999553;28;20733;-52
2022/09/20 11:25:55;;;;;;;4.07;0.60;;;15.80;1.00;;;;;;4999608;28;20214;-54
2022/09/20 11:28:45;;;;;;;3.03;0.63;;;15.60;1.00;;;;;;5001279;28;20713;-52
2022/09/20 11:31:12;;;;;;;2.90;0.60;;;15.20;99.90;;;;;;5002281;28;20195;-52
2022/09/20 11:33:48;;;;;;;5.07;0.97;;;14.70;1.00;;;;;;5003172;28;20797;-54
2022/09/20 11:36:29;;;;;;;2.00;1.00;;;14.70;99.90;;;;;;4998092;28;20201;-52
2022/09/20 11:39:21;;;;;;;1.67;0.53;;;14.50;1.00;;;;;;5002377;28;20298;-52
2022/09/20 11:41:53;;;;;;;2.63;0.70;;;14.70;99.90;;;;;;4999815;28;20306;-54
2022/09/20 11:44:21;;;;;;;3.60;0.40;;;14.70;83.60;;;;;;5001164;28;20684;-52
2022/09/20 11:47:16;;;;;;;3.33;0.80;;;14.80;99.90;;;;;;5001202;28;20569;-52
2022/09/20 11:50:22;;;;;;;2.17;0.60;;;15.00;37.70;;;;;;5004346;28;20297;-51
2022/09/20 11:53:10;;;;;;;4.23;0.50;;;15.30;1.00;;;;;;5003756;28;20209;-52
2022/09/20 11:55:40;;;;;;;3.13;0.70;;;15.40;1.00;;;;;;4992090;28;20231;-52
2022/09/20 11:58:11;;;;;;;1.27;0.50;;;15.50;1.00;;;;;;5014020;28;20248;-52
2022/09/20 12:00:42;;;;;;;6.13;0.60;;;15.70;1.00;;;;;;5016919;28;20213;-51
2022/09/20 12:03:31;;;;;;;2.43;0.60;;;15.80;99.90;;;;;;5020266;28;20226;-52
2022/09/20 12:06:06;;;;;;;2.77;0.77;;;16.00;99.90;;;;;;5014717;28;20209;-55
2022/09/20 12:08:40;;;;;;;2.27;0.40;;;15.80;99.90;;;;;;5017125;28;20203;-52
2022/09/20 12:11:11;;;;;;;4.20;0.87;;;16.60;36.40;;;;;;5018528;28;20559;-52
2022/09/20 12:13:40;;;;;;;2.47;0.40;;;17.10;1.00;;;;;;5014387;28;20227;-52
2022/09/20 12:16:13;;;;;;;1.20;0.30;;;17.70;1.00;;;;;;5018198;28;20224;-52
2022/09/20 12:19:25;;;;;;;3.60;0.83;;;17.90;1.00;;;;;;5017925;28;20202;-53
2022/09/20 12:22:16;;;;;;;2.30;0.77;;;18.40;1.00;;;;;;5013745;28;20469;-52
2022/09/20 12:24:42;;;;;;;3.10;0.60;;;18.40;1.00;;;;;;5005305;28;20218;-52
2022/09/20 12:27:27;;;;;;;2.40;1.60;;;18.50;99.90;;;;;;5014378;28;20206;-52
2022/09/20 12:30:02;;;;;;;1.40;0.60;;;19.00;99.90;;;;;;5012752;28;20212;-51
2022/09/20 12:32:51;;;;;;;2.47;0.60;;;19.10;99.90;;;;;;5018128;28;20577;-55
2022/09/20 12:35:35;;;;;;;1.17;0.57;;;19.30;99.90;;;;;;5013387;28;20575;-54
2022/09/20 12:38:29;;;;;;;3.27;0.50;;;19.10;99.90;;;;;;5020596;28;20234;-52
2022/09/20 12:41:15;;;;;;;2.83;0.57;;;19.30;99.90;;;;;;5016252;28;20201;-55
2022/09/20 12:44:26;;;;;;;2.03;0.40;;;19.80;99.90;;;;;;5012518;28;20228;-54
2022/09/20 12:47:14;;;;;;;2.50;1.10;;;19.50;1.00;;;;;;5013721;28;20809;-53
2022/09/20 12:53:05;;;;;;;1.97;0.70;;;19.60;1.00;;;;;;5013933;28;20200;-54
2022/09/20 12:56:01;;;;;;;4.30;0.50;;;19.40;1.00;;;;;;5002999;28;20217;-54
2022/09/20 12:58:44;;;;;;;1.70;0.60;;;19.60;1.00;;;;;;5017618;28;20278;-54
2022/09/20 13:01:23;;;;;;;0.80;0.40;;;19.70;1.00;;;;;;5010411;28;20227;-51
2022/09/20 13:04:35;;;;;;;2.73;0.57;;;19.80;1.00;;;;;;5015432;28;20565;-53
2022/09/20 13:07:33;;;;;;;3.80;0.50;;;19.70;1.00;;;;;;5012227;28;20296;-49
2022/09/20 13:10:17;;;;;;;1.13;0.40;;;19.40;1.00;;;;;;5012731;28;21014;-51
2022/09/20 13:12:44;;;;;;;2.40;0.20;;;19.80;1.00;;;;;;5011684;28;20219;-52
2022/09/20 13:15:20;;;;;;;3.90;0.50;;;19.40;1.00;;;;;;5016148;28;20228;-51
2022/09/20 13:17:55;;;;;;;1.83;0.47;;;19.20;1.00;;;;;;5013803;28;20715;-50
2022/09/20 13:20:35;;;;;;;2.50;0.60;;;19.80;1.00;;;;;;5017112;28;20231;-50
2022/09/20 13:23:04;;;;;;;3.33;0.57;;;20.20;1.00;;;;;;5016101;28;20278;-52
2022/09/20 13:25:33;;;;;;;2.73;0.30;;;19.50;1.00;;;;;;5010051;28;20219;-51
2022/09/20 13:28:14;;;;;;;2.60;0.50;;;19.80;1.00;;;;;;5017378;28;20216;-51
2022/09/20 13:30:46;;;;;;;1.30;0.50;;;20.00;1.00;;;;;;5016978;28;20557;-50
2022/09/20 13:33:24;;;;;;;3.83;0.90;;;19.70;1.00;;;;;;5018101;28;20253;-53
2022/09/20 13:35:56;;;;;;;1.20;0.50;;;19.00;1.00;;;;;;5013352;28;20243;-51
2022/09/20 13:38:29;;;;;;;0.90;0.57;;;18.60;1.00;;;;;;5019549;28;20345;-51
2022/09/20 13:41:05;;;;;;;1.67;0.40;;;18.60;1.00;;;;;;5020646;28;20614;-49
2022/09/20 13:43:40;;;;;;;2.33;0.40;;;18.50;1.00;;;;;;5020332;28;20731;-51
2022/09/20 13:46:17;;;;;;;1.20;0.53;;;18.40;1.00;;;;;;5033461;28;20200;-51
2022/09/20 13:48:51;;;;;;;7.60;1.20;;;18.40;1.00;;;;;;5010509;28;20219;-53
2022/09/20 13:51:24;;;;;;;1.83;0.40;;;18.50;1.00;;;;;;5013804;28;20521;-51
2022/09/20 13:53:52;;;;;;;7.63;2.60;;;18.40;1.00;;;;;;5012900;28;20197;-51
2022/09/20 13:56:24;;;;;;;3.83;0.73;;;18.30;1.00;;;;;;5017785;28;20299;-52
2022/09/20 13:58:52;;;;;;;1.73;0.60;;;18.30;1.00;;;;;;5019542;28;20818;-52
2022/09/20 14:01:31;;;;;;;1.70;0.50;;;18.30;1.00;;;;;;5014331;28;20229;-51
2022/09/20 14:04:12;;;;;;;4.13;0.60;;;18.20;1.00;;;;;;5020261;28;20813;-51
2022/09/20 14:06:41;;;;;;;2.77;0.70;;;18.30;1.00;;;;;;5014105;28;20203;-52
2022/09/20 14:09:28;;;;;;;2.73;0.77;;;18.40;1.00;;;;;;5016628;28;20204;-51